Time;durP1;ratioP1;P1;durP2;ratioP2;P2;SDS_P1;SDS_P2;PMS_P1;PMS_P2;Temp;Humidity;BMP_temperature;BMP_pressure;BME280_temperature;BME280_humidity;BME280_pressure;Samples;Min_cycle;Max_cycle;Signal;HPM_P1;HPM_P2
2023/01/07 00:00:05;;;;;;;;;;;17.40;89.80;;;;;;5094825;28;20015;-49
2023/01/07 00:02:30;;;;;;;;;;;17.40;89.90;;;;;;5093318;28;20359;-48
2023/01/07 00:04:56;;;;;;;;;;;17.40;90.00;;;;;;5094147;28;19999;-49
2023/01/07 00:07:21;;;;;;;;;;;17.40;90.10;;;;;;5095321;28;19961;-47
2023/01/07 00:09:46;;;;;;;;;;;17.30;90.10;;;;;;5077110;28;19916;-49
2023/01/07 00:12:12;;;;;;;;;;;17.30;90.20;;;;;;5094791;28;19919;-50
2023/01/07 00:14:38;;;;;;;;;;;17.30;90.20;;;;;;5095155;28;19908;-51
2023/01/07 00:17:03;;;;;;;;;;;17.30;90.30;;;;;;5094881;28;19912;-51
2023/01/07 00:19:29;;;;;;;;;;;17.30;90.30;;;;;;5094770;28;19923;-50
2023/01/07 00:21:54;;;;;;;;;;;17.30;90.30;;;;;;5094764;28;19908;-50
2023/01/07 00:24:19;;;;;;;;;;;17.20;90.40;;;;;;5095041;28;19916;-48
2023/01/07 00:26:45;;;;;;;;;;;17.20;90.40;;;;;;5095299;28;19908;-49
2023/01/07 00:29:11;;;;;;;;;;;17.20;90.40;;;;;;5094663;28;19966;-48
2023/01/07 00:31:38;;;;;;;;;;;17.20;90.50;;;;;;5094612;28;19908;-50
2023/01/07 00:36:31;;;;;;;;;;;17.10;90.50;;;;;;5095152;28;20277;-50
2023/01/07 00:38:58;;;;;;;;;;;17.10;90.50;;;;;;5094420;28;19916;-49
2023/01/07 00:41:24;;;;;;;;;;;17.10;90.60;;;;;;5094395;28;20383;-47
2023/01/07 00:43:49;;;;;;;;;;;17.10;90.60;;;;;;5094655;28;19908;-48
2023/01/07 00:46:15;;;;;;;;;;;17.10;90.60;;;;;;5094949;28;20416;-47
2023/01/07 00:48:41;;;;;;;;;;;17.10;90.60;;;;;;5094246;28;19909;-47
2023/01/07 00:51:08;;;;;;;;;;;17.10;90.70;;;;;;5094499;28;19907;-49
2023/01/07 00:53:33;;;;;;;;;;;17.00;90.60;;;;;;5094247;28;20278;-48
2023/01/07 00:55:59;;;;;;;;;;;17.10;90.70;;;;;;5094178;28;19908;-52
2023/01/07 00:58:24;;;;;;;;;;;17.10;90.70;;;;;;5094013;28;19920;-49
2023/01/07 01:00:54;;;;;;;;;;;17.00;90.70;;;;;;5094073;28;19908;-48
2023/01/07 01:03:20;;;;;;;;;;;17.00;90.70;;;;;;5094099;28;19912;-53
2023/01/07 01:05:45;;;;;;;;;;;17.00;90.70;;;;;;5094319;28;19996;-53
2023/01/07 01:08:11;;;;;;;;;;;17.00;90.80;;;;;;5094402;28;19908;-53
2023/01/07 01:10:36;;;;;;;;;;;17.00;90.80;;;;;;5094031;28;19908;-51
2023/01/07 01:13:02;;;;;;;;;;;17.00;90.80;;;;;;5093945;28;20389;-51
2023/01/07 01:15:28;;;;;;;;;;;17.00;90.80;;;;;;5094220;28;20252;-51
2023/01/07 01:17:53;;;;;;;;;;;17.00;90.70;;;;;;5094276;28;19908;-48
2023/01/07 01:20:19;;;;;;;;;;;17.00;90.80;;;;;;5093852;28;19952;-50
2023/01/07 01:22:44;;;;;;;;;;;17.00;90.80;;;;;;5094164;28;19908;-52
2023/01/07 01:25:12;;;;;;;;;;;17.00;90.80;;;;;;5094235;28;19908;-53
2023/01/07 01:27:38;;;;;;;;;;;17.00;90.70;;;;;;5093945;28;19978;-52
2023/01/07 01:30:04;;;;;;;;;;;17.00;91.00;;;;;;5094152;28;19912;-50
2023/01/07 01:32:30;;;;;;;;;;;17.00;90.80;;;;;;5094327;28;19908;-48
2023/01/07 01:34:55;;;;;;;;;;;17.00;90.80;;;;;;5093758;28;19943;-52
2023/01/07 01:37:21;;;;;;;;;;;17.00;91.00;;;;;;5094090;28;19951;-50
2023/01/07 01:39:46;;;;;;;;;;;17.00;90.80;;;;;;5093691;28;20446;-49
2023/01/07 01:42:12;;;;;;;;;;;17.00;90.90;;;;;;5093966;28;19919;-48
2023/01/07 01:44:50;;;;;;;;;;;16.90;90.80;;;;;;5093936;28;19912;-49
2023/01/07 01:47:19;;;;;;;;;;;17.00;90.90;;;;;;5093710;28;19908;-47
2023/01/07 01:50:14;;;;;;;;;;;17.00;90.90;;;;;;5094278;28;20362;-48
2023/01/07 01:52:45;;;;;;;;;;;17.00;90.90;;;;;;5079998;28;19915;-49
2023/01/07 01:55:12;;;;;;;;;;;16.90;90.90;;;;;;5093916;28;19908;-49
2023/01/07 01:57:38;;;;;;;;;;;17.00;90.90;;;;;;5093852;28;19908;-50
2023/01/07 02:00:04;;;;;;;;;;;16.90;90.90;;;;;;5095455;28;19923;-54
2023/01/07 02:02:32;;;;;;;;;;;16.90;90.90;;;;;;5097711;28;19912;-49
2023/01/07 02:04:58;;;;;;;;;;;17.00;91.00;;;;;;5097728;28;19974;-51
2023/01/07 02:07:24;;;;;;;;;;;16.90;90.90;;;;;;5097379;28;20036;-51
2023/01/07 02:09:53;;;;;;;;;;;16.90;90.90;;;;;;5079517;28;19915;-49
2023/01/07 02:12:21;;;;;;;;;;;16.90;91.00;;;;;;5097587;28;19908;-51
2023/01/07 02:15:07;;;;;;;;;;;16.90;91.00;;;;;;5079263;28;19912;-47
2023/01/07 02:17:38;;;;;;;;;;;16.90;91.00;;;;;;5097776;28;20359;-47
2023/01/07 02:20:18;;;;;;;;;;;16.90;91.00;;;;;;5097140;28;20374;-48
2023/01/07 02:22:50;;;;;;;;;;;16.90;91.00;;;;;;5097112;28;19916;-48
2023/01/07 02:25:21;;;;;;;;;;;16.90;91.00;;;;;;5097084;28;19908;-48
2023/01/07 02:28:05;;;;;;;;;;;16.90;91.00;;;;;;5096958;28;19915;-51
2023/01/07 02:30:49;;;;;;;;;;;16.80;91.00;;;;;;5096869;28;19908;-47
2023/01/07 02:33:23;;;;;;;;;;;16.90;91.00;;;;;;5097189;28;19908;-48
2023/01/07 02:36:09;;;;;;;;;;;16.80;91.00;;;;;;5096963;28;19951;-49
2023/01/07 02:38:53;;;;;;;;;;;16.80;91.00;;;;;;5065043;28;19916;-47
2023/01/07 02:41:27;;;;;;;;;;;16.80;91.00;;;;;;5096688;28;20355;-47
2023/01/07 02:43:56;;;;;;;;;;;16.80;91.00;;;;;;5096988;28;19912;-49
2023/01/07 02:46:33;;;;;;;;;;;16.80;91.00;;;;;;5096983;28;19954;-47
2023/01/07 02:48:59;;;;;;;;;;;16.80;91.00;;;;;;5096863;28;20267;-50
2023/01/07 02:51:35;;;;;;;;;;;16.80;91.00;;;;;;5096795;28;19919;-48
2023/01/07 02:54:00;;;;;;;;;;;16.80;91.00;;;;;;5096827;28;19912;-48
2023/01/07 02:56:38;;;;;;;;;;;16.80;91.00;;;;;;5078873;28;20391;-47
2023/01/07 02:59:03;;;;;;;;;;;16.80;91.30;;;;;;5096359;28;20317;-49
2023/01/07 03:01:48;;;;;;;;;;;16.80;91.10;;;;;;5096366;28;20007;-49
2023/01/07 03:04:13;;;;;;;;;;;16.80;91.00;;;;;;5096522;28;19977;-53
2023/01/07 03:06:54;;;;;;;;;;;16.70;91.00;;;;;;5096533;28;20351;-48
2023/01/07 03:09:35;;;;;;;;;;;16.70;91.00;;;;;;5096318;28;20372;-51
2023/01/07 03:12:09;;;;;;;;;;;16.70;91.00;;;;;;5095568;28;19958;-49
2023/01/07 03:14:40;;;;;;;;;;;16.70;91.10;;;;;;5096027;28;20279;-50
2023/01/07 03:17:08;;;;;;;;;;;16.70;91.10;;;;;;5096097;28;20006;-47
2023/01/07 03:19:35;;;;;;;;;;;16.70;91.10;;;;;;5096189;28;19923;-49
2023/01/07 03:22:02;;;;;;;;;;;16.70;91.10;;;;;;5095927;28;20268;-50
2023/01/07 03:24:29;;;;;;;;;;;16.70;91.10;;;;;;5096220;28;19912;-47
2023/01/07 03:26:57;;;;;;;;;;;16.70;91.10;;;;;;5096445;28;19914;-48
2023/01/07 03:29:22;;;;;;;;;;;16.70;91.30;;;;;;5095994;28;19912;-51
2023/01/07 03:32:06;;;;;;;;;;;16.70;91.10;;;;;;5095832;28;19908;-50
2023/01/07 03:34:32;;;;;;;;;;;16.70;91.10;;;;;;5095848;28;20313;-51
2023/01/07 03:37:01;;;;;;;;;;;16.60;91.10;;;;;;5077944;28;19908;-52
2023/01/07 03:39:27;;;;;;;;;;;16.60;91.20;;;;;;5095877;28;19966;-51
2023/01/07 03:44:37;;;;;;;;;;;16.60;91.20;;;;;;5095823;28;19915;-47
2023/01/07 03:47:03;;;;;;;;;;;16.60;91.10;;;;;;5095776;28;19908;-48
2023/01/07 03:49:29;;;;;;;;;;;16.60;91.20;;;;;;5095690;28;19908;-51
2023/01/07 03:51:54;;;;;;;;;;;16.60;91.20;;;;;;5095668;28;19916;-50
2023/01/07 03:54:22;;;;;;;;;;;16.60;91.10;;;;;;5095318;28;19908;-51
2023/01/07 03:56:47;;;;;;;;;;;16.60;91.20;;;;;;5095559;28;19908;-51
2023/01/07 03:59:13;;;;;;;;;;;16.60;91.20;;;;;;5095426;28;19922;-51
2023/01/07 04:01:38;;;;;;;;;;;16.60;91.20;;;;;;5095514;28;19908;-53
2023/01/07 04:04:04;;;;;;;;;;;16.60;91.20;;;;;;5095387;28;19908;-47
2023/01/07 04:06:29;;;;;;;;;;;16.50;91.20;;;;;;5095017;28;19908;-48
2023/01/07 04:08:54;;;;;;;;;;;16.50;91.20;;;;;;5095259;28;20359;-48
2023/01/07 04:11:20;;;;;;;;;;;16.50;91.20;;;;;;5095554;28;19908;-49
2023/01/07 04:13:45;;;;;;;;;;;16.50;91.20;;;;;;5095247;28;19908;-49
2023/01/07 04:16:11;;;;;;;;;;;16.50;91.20;;;;;;5094808;28;19909;-51
2023/01/07 04:18:36;;;;;;;;;;;16.50;91.30;;;;;;5076844;28;20308;-51
2023/01/07 04:21:02;;;;;;;;;;;16.50;91.20;;;;;;5094765;28;20260;-50
2023/01/07 04:23:28;;;;;;;;;;;16.50;91.30;;;;;;5094457;28;19915;-51
2023/01/07 04:25:53;;;;;;;;;;;16.50;91.30;;;;;;5094971;28;20046;-48
2023/01/07 04:28:19;;;;;;;;;;;16.50;91.30;;;;;;5095311;28;19908;-51
2023/01/07 04:30:44;;;;;;;;;;;16.50;91.30;;;;;;5094555;28;19908;-47
2023/01/07 04:33:09;;;;;;;;;;;16.50;91.30;;;;;;5076510;28;19908;-52
2023/01/07 04:35:35;;;;;;;;;;;16.50;91.30;;;;;;5094724;28;19920;-52
2023/01/07 04:38:00;;;;;;;;;;;16.50;91.30;;;;;;5094758;28;19908;-48
2023/01/07 04:40:26;;;;;;;;;;;16.50;91.40;;;;;;5076465;28;19916;-47
2023/01/07 04:42:52;;;;;;;;;;;16.50;91.30;;;;;;5094702;28;19908;-47
2023/01/07 04:45:17;;;;;;;;;;;16.40;91.30;;;;;;5076462;28;19989;-52
2023/01/07 04:47:43;;;;;;;;;;;16.40;91.40;;;;;;5094333;28;19961;-48
2023/01/07 04:50:08;;;;;;;;;;;16.40;91.40;;;;;;5094298;28;19908;-49
2023/01/07 04:52:34;;;;;;;;;;;16.40;91.40;;;;;;5094201;28;19916;-51
2023/01/07 04:54:59;;;;;;;;;;;16.40;91.40;;;;;;5094430;28;19908;-52
2023/01/07 04:57:24;;;;;;;;;;;16.40;91.40;;;;;;5094805;28;19914;-47
2023/01/07 04:59:50;;;;;;;;;;;16.40;91.40;;;;;;5076279;28;20343;-48
2023/01/07 05:02:15;;;;;;;;;;;16.40;91.40;;;;;;5094715;28;19931;-47
2023/01/07 05:04:41;;;;;;;;;;;16.40;91.40;;;;;;5094098;28;19934;-49
2023/01/07 05:07:06;;;;;;;;;;;16.40;91.40;;;;;;5094066;28;19908;-48
2023/01/07 05:09:32;;;;;;;;;;;16.40;91.40;;;;;;5094006;28;19912;-47
2023/01/07 05:11:58;;;;;;;;;;;16.40;91.50;;;;;;5094105;28;19908;-51
2023/01/07 05:14:23;;;;;;;;;;;16.40;91.50;;;;;;5093592;28;19915;-49
2023/01/07 05:16:48;;;;;;;;;;;16.40;91.50;;;;;;5093964;28;19908;-50
2023/01/07 05:19:14;;;;;;;;;;;16.40;91.50;;;;;;5093834;28;20329;-52
2023/01/07 05:21:39;;;;;;;;;;;16.40;91.50;;;;;;5094176;28;19922;-50
2023/01/07 05:24:05;;;;;;;;;;;16.40;91.50;;;;;;5093837;28;19908;-51
2023/01/07 05:26:30;;;;;;;;;;;16.30;91.50;;;;;;5093929;28;19995;-52
2023/01/07 05:28:56;;;;;;;;;;;16.30;91.50;;;;;;5094196;28;19988;-51
2023/01/07 05:31:21;;;;;;;;;;;16.30;91.50;;;;;;5075917;28;19916;-49
2023/01/07 05:33:47;;;;;;;;;;;16.30;91.50;;;;;;5094533;28;19912;-50
2023/01/07 05:36:12;;;;;;;;;;;16.30;91.60;;;;;;5097982;28;19924;-47
2023/01/07 05:38:38;;;;;;;;;;;16.30;91.60;;;;;;5098195;28;19916;-48
2023/01/07 05:41:03;;;;;;;;;;;16.30;91.60;;;;;;5097901;28;19908;-47
2023/01/07 05:43:29;;;;;;;;;;;16.30;91.60;;;;;;5079862;28;20312;-50
2023/01/07 05:45:55;;;;;;;;;;;16.30;91.60;;;;;;5097784;28;19930;-49
2023/01/07 05:48:20;;;;;;;;;;;16.30;91.60;;;;;;5097753;28;19953;-50
2023/01/07 05:50:46;;;;;;;;;;;16.30;91.60;;;;;;5098345;28;19914;-52
2023/01/07 05:53:11;;;;;;;;;;;16.30;91.60;;;;;;5079790;28;19947;-49
2023/01/07 05:55:37;;;;;;;;;;;16.20;91.60;;;;;;5097600;28;19916;-47
2023/01/07 05:58:03;;;;;;;;;;;16.20;91.70;;;;;;5097847;28;19912;-47
2023/01/07 06:00:29;;;;;;;;;;;16.20;91.70;;;;;;5079509;28;19916;-49
2023/01/07 06:02:54;;;;;;;;;;;16.20;91.70;;;;;;5097492;28;20049;-48
2023/01/07 06:05:21;;;;;;;;;;;16.20;91.70;;;;;;5097501;28;19912;-51
2023/01/07 06:07:46;;;;;;;;;;;16.20;91.70;;;;;;5098090;28;20366;-50
2023/01/07 06:10:12;;;;;;;;;;;16.20;91.70;;;;;;5097620;28;19912;-48
2023/01/07 06:12:37;;;;;;;;;;;16.20;91.70;;;;;;5097284;28;20332;-50
2023/01/07 06:15:04;;;;;;;;;;;16.20;91.80;;;;;;5097523;28;20309;-52
2023/01/07 06:17:29;;;;;;;;;;;16.20;91.80;;;;;;5097499;28;20258;-46
2023/01/07 06:19:55;;;;;;;;;;;16.20;91.70;;;;;;5097386;28;19922;-46
2023/01/07 06:22:20;;;;;;;;;;;16.20;91.80;;;;;;5097159;28;20270;-52
2023/01/07 06:24:45;;;;;;;;;;;16.10;91.80;;;;;;5097374;28;19912;-50
2023/01/07 06:27:11;;;;;;;;;;;16.20;91.80;;;;;;5097157;28;19908;-49
2023/01/07 06:29:36;;;;;;;;;;;16.10;91.80;;;;;;5097513;28;19923;-50
2023/01/07 06:32:02;;;;;;;;;;;16.20;91.80;;;;;;5097135;28;19912;-49
2023/01/07 06:34:28;;;;;;;;;;;16.10;91.80;;;;;;5096964;28;19908;-52
2023/01/07 06:36:53;;;;;;;;;;;16.10;91.80;;;;;;5078770;28;19926;-53
2023/01/07 06:39:19;;;;;;;;;;;16.10;91.80;;;;;;5097021;28;19961;-53
2023/01/07 06:41:44;;;;;;;;;;;16.10;91.80;;;;;;5096606;28;19907;-47
2023/01/07 06:44:09;;;;;;;;;;;16.10;91.20;;;;;;5094266;28;19912;-48
2023/01/07 06:46:35;;;;;;;;;;;16.10;90.70;;;;;;5101180;28;19912;-51
2023/01/07 06:49:00;;;;;;;;;;;16.10;91.10;;;;;;5089703;28;19912;-51
2023/01/07 06:51:26;;;;;;;;;;;16.10;91.30;;;;;;5092877;28;19944;-52
2023/01/07 06:53:51;;;;;;;;;;;16.10;91.40;;;;;;5095403;28;19908;-49
2023/01/07 06:56:17;;;;;;;;;;;16.10;91.50;;;;;;5095188;28;19934;-51
2023/01/07 06:58:42;;;;;;;;;;;16.10;91.50;;;;;;5095093;28;19920;-51
2023/01/07 07:01:08;;;;;;;;;;;16.10;91.50;;;;;;5099253;28;19911;-54
2023/01/07 07:03:33;;;;;;;;;;;16.10;91.60;;;;;;5076944;28;20258;-49
2023/01/07 07:05:59;;;;;;;;;;;16.00;91.60;;;;;;5095220;28;19908;-52
2023/01/07 07:08:25;;;;;;;;;;;16.00;91.60;;;;;;5094950;28;19919;-50
2023/01/07 07:10:50;;;;;;;;;;;16.00;91.70;;;;;;5094723;28;19966;-51
2023/01/07 07:13:15;;;;;;;;;;;16.00;91.70;;;;;;5094789;28;19914;-51
2023/01/07 07:15:41;;;;;;;;;;;16.00;91.70;;;;;;5077168;28;19912;-50
2023/01/07 07:18:07;;;;;;;;;;;16.00;91.70;;;;;;5089810;28;19908;-48
2023/01/07 07:20:32;;;;;;;;;;;16.00;91.80;;;;;;5114292;28;20270;-51
2023/01/07 07:22:58;;;;;;;;;;;16.00;91.80;;;;;;5114335;28;19949;-51
2023/01/07 07:25:23;;;;;;;;;;;16.00;91.80;;;;;;5097693;28;19907;-50
2023/01/07 07:27:49;;;;;;;;;;;16.00;91.80;;;;;;5116381;28;20260;-48
2023/01/07 07:30:14;;;;;;;;;;;16.00;91.80;;;;;;5098198;28;19964;-53
2023/01/07 07:32:40;;;;;;;;;;;16.00;91.80;;;;;;5098019;28;19904;-51
2023/01/07 07:35:06;;;;;;;;;;;16.00;91.90;;;;;;5116080;28;19915;-48
2023/01/07 07:37:31;;;;;;;;;;;16.00;91.90;;;;;;5116163;28;20012;-49
2023/01/07 07:39:57;;;;;;;;;;;15.90;91.90;;;;;;5116230;28;19966;-53
2023/01/07 07:42:22;;;;;;;;;;;15.90;91.90;;;;;;5115918;28;19912;-51
2023/01/07 07:44:49;;;;;;;;;;;16.00;91.90;;;;;;5116116;28;19907;-50
2023/01/07 07:47:15;;;;;;;;;;;15.90;91.90;;;;;;5116107;28;20241;-52
2023/01/07 07:49:40;;;;;;;;;;;15.90;91.90;;;;;;5097806;28;19904;-49
2023/01/07 07:52:05;;;;;;;;;;;15.90;92.00;;;;;;5116279;28;19948;-49
2023/01/07 07:54:31;;;;;;;;;;;15.90;92.00;;;;;;5115581;28;19958;-52
2023/01/07 07:56:57;;;;;;;;;;;15.90;92.00;;;;;;5115058;28;20352;-50
2023/01/07 07:59:23;;;;;;;;;;;15.90;92.00;;;;;;5115270;28;19915;-49
2023/01/07 08:01:49;;;;;;;;;;;15.90;92.00;;;;;;5116095;28;20243;-49
2023/01/07 08:04:14;;;;;;;;;;;15.90;92.10;;;;;;5116134;28;19994;-50
2023/01/07 08:06:40;;;;;;;;;;;15.90;92.10;;;;;;5115800;28;19931;-48
2023/01/07 08:09:05;;;;;;;;;;;15.90;92.10;;;;;;5115713;28;19961;-50
2023/01/07 08:11:31;;;;;;;;;;;15.90;92.10;;;;;;5115454;28;19903;-48
2023/01/07 08:13:56;;;;;;;;;;;15.90;92.10;;;;;;5097413;28;19959;-50
2023/01/07 08:16:22;;;;;;;;;;;15.90;92.10;;;;;;5115592;28;19914;-53
2023/01/07 08:18:47;;;;;;;;;;;15.90;92.10;;;;;;5115314;28;20335;-52
2023/01/07 08:21:13;;;;;;;;;;;15.80;92.10;;;;;;5115146;28;19904;-52
2023/01/07 08:23:38;;;;;;;;;;;15.80;92.10;;;;;;5115092;28;20326;-48
2023/01/07 08:26:04;;;;;;;;;;;15.80;92.10;;;;;;5115755;28;19911;-54
2023/01/07 08:28:30;;;;;;;;;;;15.90;92.20;;;;;;5109699;28;20347;-52
2023/01/07 08:30:55;;;;;;;;;;;15.80;92.10;;;;;;5094744;28;19912;-49
2023/01/07 08:33:21;;;;;;;;;;;15.80;92.20;;;;;;5076738;28;19944;-52
2023/01/07 08:35:46;;;;;;;;;;;15.80;92.20;;;;;;5094960;28;19920;-52
2023/01/07 08:38:11;;;;;;;;;;;15.80;92.20;;;;;;5094710;28;19939;-50
2023/01/07 08:40:37;;;;;;;;;;;15.80;92.20;;;;;;5094551;28;19915;-50
2023/01/07 08:43:05;;;;;;;;;;;15.80;92.20;;;;;;5094497;28;19954;-53
2023/01/07 08:45:30;;;;;;;;;;;15.80;92.20;;;;;;5094665;28;19908;-51
2023/01/07 08:47:56;;;;;;;;;;;15.80;92.20;;;;;;5094533;28;20247;-49
2023/01/07 08:50:25;;;;;;;;;;;15.80;92.20;;;;;;5094510;28;20006;-48
2023/01/07 08:52:51;;;;;;;;;;;15.80;92.20;;;;;;5094234;28;19915;-53
2023/01/07 08:55:16;;;;;;;;;;;15.80;92.20;;;;;;5076278;28;19909;-48
2023/01/07 08:57:42;;;;;;;;;;;15.80;92.20;;;;;;5094168;28;19919;-51
2023/01/07 09:00:08;;;;;;;;;;;15.80;92.20;;;;;;5094137;28;19985;-52
2023/01/07 09:02:33;;;;;;;;;;;15.80;92.20;;;;;;5094365;28;19992;-49
2023/01/07 09:04:59;;;;;;;;;;;15.80;92.20;;;;;;5093874;28;19908;-49
2023/01/07 09:07:24;;;;;;;;;;;15.80;92.20;;;;;;5094053;28;19938;-52
2023/01/07 09:09:50;;;;;;;;;;;15.80;92.30;;;;;;5093195;28;19915;-52
2023/01/07 09:12:15;;;;;;;;;;;15.80;92.30;;;;;;5094168;28;20358;-48
2023/01/07 09:14:40;;;;;;;;;;;15.80;92.30;;;;;;5092540;28;19912;-49
2023/01/07 09:17:06;;;;;;;;;;;15.80;92.30;;;;;;5092174;28;20351;-55
2023/01/07 09:19:31;;;;;;;;;;;15.80;92.20;;;;;;5091907;28;19920;-58
2023/01/07 09:21:57;;;;;;;;;;;15.80;92.10;;;;;;5101576;28;19962;-56
2023/01/07 09:24:22;;;;;;;;;;;15.80;92.40;;;;;;5073585;28;19954;-57
2023/01/07 09:26:48;;;;;;;;;;;15.80;92.40;;;;;;5093890;28;19912;-56
2023/01/07 09:29:14;;;;;;;;;;;15.80;92.30;;;;;;5078197;28;19919;-57
2023/01/07 09:31:39;;;;;;;;;;;15.80;92.10;;;;;;5109885;28;19915;-57
2023/01/07 09:34:05;;;;;;;;;;;15.80;92.30;;;;;;5111734;28;20359;-56
2023/01/07 09:36:30;;;;;;;;;;;15.80;92.30;;;;;;5100103;28;19920;-57
2023/01/07 09:38:56;;;;;;;;;;;15.80;92.30;;;;;;5093098;28;20007;-58
2023/01/07 09:41:40;;;;;;;;;;;15.80;92.30;;;;;;5091537;28;19908;-57
2023/01/07 09:44:08;;;;;;;;;;;15.80;92.20;;;;;;5072552;28;20254;-54
2023/01/07 09:46:34;;;;;;;;;;;15.80;92.00;;;;;;5091577;28;20345;-60
2023/01/07 09:49:01;;;;;;;;;;;15.80;92.00;;;;;;5095066;28;19908;-57
2023/01/07 09:51:42;;;;;;;;;;;15.80;92.20;;;;;;5093277;28;19998;-56
2023/01/07 09:54:16;;;;;;;;;;;15.90;92.10;;;;;;5075791;28;19958;-55
2023/01/07 09:56:41;;;;;;;;;;;16.00;92.10;;;;;;5093659;28;19904;-57
2023/01/07 09:59:09;;;;;;;;;;;16.10;92.10;;;;;;5093453;28;20292;-56
2023/01/07 10:01:37;;;;;;;;;;;16.30;92.00;;;;;;5093426;28;19908;-54
2023/01/07 10:04:23;;;;;;;;;;;16.40;91.90;;;;;;5093708;28;20349;-56
2023/01/07 10:06:58;;;;;;;;;;;16.60;91.60;;;;;;5093627;28;19911;-57
2023/01/07 10:09:23;;;;;;;;;;;16.80;91.30;;;;;;5093770;28;19904;-56
2023/01/07 10:12:05;;;;;;;;;;;17.20;90.90;;;;;;5075746;28;19954;-55
2023/01/07 10:14:43;;;;;;;;;;;17.60;90.50;;;;;;5093505;28;19905;-57
2023/01/07 10:17:08;;;;;;;;;;;17.90;89.80;;;;;;5075910;28;20349;-57
2023/01/07 10:19:43;;;;;;;;;;;18.30;88.90;;;;;;5093596;28;19916;-58
2023/01/07 10:22:18;;;;;;;;;;;18.50;88.00;;;;;;5097221;28;19908;-58
2023/01/07 10:24:45;;;;;;;;;;;18.60;87.60;;;;;;5097399;28;19904;-58
2023/01/07 10:27:13;;;;;;;;;;;18.60;87.40;;;;;;5097378;28;19904;-55
2023/01/07 10:29:41;;;;;;;;;;;18.60;87.50;;;;;;5096795;28;19904;-58
2023/01/07 10:32:10;;;;;;;;;;;18.60;87.60;;;;;;5096956;28;19904;-56
2023/01/07 10:34:46;;;;;;;;;;;18.50;87.60;;;;;;5096870;28;19904;-55
2023/01/07 10:37:18;;;;;;;;;;;18.40;87.90;;;;;;5097332;28;19942;-57
2023/01/07 10:40:01;;;;;;;;;;;18.30;88.20;;;;;;5096783;28;19923;-56
2023/01/07 10:42:27;;;;;;;;;;;18.20;88.40;;;;;;5097175;28;19904;-55
2023/01/07 10:45:02;;;;;;;;;;;18.10;88.60;;;;;;5096797;28;19908;-55
2023/01/07 10:47:27;;;;;;;;;;;18.00;88.90;;;;;;5078822;28;19912;-56
2023/01/07 10:50:06;;;;;;;;;;;17.90;89.00;;;;;;5078583;28;20003;-55
2023/01/07 10:52:50;;;;;;;;;;;17.90;89.30;;;;;;5096933;28;19904;-55
2023/01/07 10:55:51;;;;;;;;;;;17.80;89.50;;;;;;5096329;28;19904;-56
2023/01/07 10:58:17;;;;;;;;;;;17.70;89.70;;;;;;5017649;28;19945;-55
2023/01/07 11:00:44;;;;;;;;;;;17.70;89.90;;;;;;5083434;28;19962;-56
2023/01/07 11:03:23;;;;;;;;;;;17.60;89.90;;;;;;5096567;28;19991;-57
2023/01/07 11:05:51;;;;;;;;;;;17.60;90.00;;;;;;5096343;28;19958;-55
2023/01/07 11:08:28;;;;;;;;;;;17.60;90.00;;;;;;5096703;28;19918;-54
2023/01/07 11:10:54;;;;;;;;;;;17.70;90.00;;;;;;5078459;28;20353;-56
2023/01/07 11:13:30;;;;;;;;;;;17.80;89.80;;;;;;5096169;28;19904;-56
2023/01/07 11:15:57;;;;;;;;;;;18.00;89.30;;;;;;5077915;28;19905;-57
2023/01/07 11:18:26;;;;;;;;;;;18.20;88.70;;;;;;5078153;28;20346;-55
2023/01/07 11:20:53;;;;;;;;;;;18.30;88.20;;;;;;5078005;28;19919;-56
2023/01/07 11:23:25;;;;;;;;;;;18.50;87.70;;;;;;5096515;28;19911;-56
2023/01/07 11:25:51;;;;;;;;;;;18.50;87.50;;;;;;5095692;28;19904;-56
2023/01/07 11:28:17;;;;;;;;;;;18.50;87.40;;;;;;5077488;28;19904;-58
2023/01/07 11:30:43;;;;;;;;;;;18.50;87.50;;;;;;5096014;28;20034;-57
2023/01/07 11:33:16;;;;;;;;;;;18.40;87.60;;;;;;5094490;28;19947;-56
2023/01/07 11:35:49;;;;;;;;;;;18.40;87.90;;;;;;5095760;28;20284;-55
2023/01/07 11:38:26;;;;;;;;;;;18.30;88.00;;;;;;5077619;28;19911;-55
2023/01/07 11:40:56;;;;;;;;;;;18.20;88.20;;;;;;5077494;28;19912;-57
2023/01/07 11:43:22;;;;;;;;;;;18.10;88.40;;;;;;5095659;28;19904;-56
2023/01/07 11:45:52;;;;;;;;;;;18.10;88.60;;;;;;5095691;28;20107;-56
2023/01/07 11:48:34;;;;;;;;;;;18.00;88.80;;;;;;5077416;28;19998;-57
2023/01/07 11:51:03;;;;;;;;;;;18.00;89.00;;;;;;5095543;28;19950;-56
2023/01/07 11:53:31;;;;;;;;;;;17.90;89.20;;;;;;5095775;28;20258;-56
2023/01/07 11:55:56;;;;;;;;;;;17.80;89.40;;;;;;5095300;28;19989;-57
2023/01/07 11:58:23;;;;;;;;;;;17.80;89.50;;;;;;5095469;28;19959;-56
2023/01/07 12:01:02;;;;;;;;;;;17.70;89.60;;;;;;5095169;28;19912;-56
2023/01/07 12:03:28;;;;;;;;;;;17.80;89.70;;;;;;5095726;28;19995;-56
2023/01/07 12:05:57;;;;;;;;;;;17.70;89.70;;;;;;5095067;28;19950;-57
2023/01/07 12:08:26;;;;;;;;;;;17.80;89.70;;;;;;5076883;28;20223;-57
2023/01/07 12:10:55;;;;;;;;;;;17.90;89.40;;;;;;5094991;28;20374;-55
2023/01/07 12:13:24;;;;;;;;;;;18.10;89.00;;;;;;5095096;28;19998;-56
2023/01/07 12:15:56;;;;;;;;;;;18.20;88.50;;;;;;5094709;28;19904;-56
2023/01/07 12:18:40;;;;;;;;;;;18.30;88.10;;;;;;5095068;28;19904;-57
2023/01/07 12:21:22;;;;;;;;;;;18.40;87.80;;;;;;5094891;28;20306;-54
2023/01/07 12:24:04;;;;;;;;;;;18.50;87.70;;;;;;5095042;28;19904;-57
2023/01/07 12:26:33;;;;;;;;;;;18.40;87.70;;;;;;5094879;28;20296;-57
2023/01/07 12:29:04;;;;;;;;;;;18.40;87.90;;;;;;5095177;28;19904;-57
2023/01/07 12:31:38;;;;;;;;;;;18.30;88.00;;;;;;5094876;28;19903;-56
2023/01/07 12:34:06;;;;;;;;;;;18.20;88.20;;;;;;5094563;28;19911;-58
2023/01/07 12:36:37;;;;;;;;;;;18.20;88.40;;;;;;5094895;28;19951;-55
2023/01/07 12:39:07;;;;;;;;;;;18.10;88.60;;;;;;5094240;28;19923;-56
2023/01/07 12:41:37;;;;;;;;;;;18.00;88.80;;;;;;5094942;28;19908;-55
2023/01/07 12:44:03;;;;;;;;;;;17.90;88.90;;;;;;5070506;28;20023;-54
2023/01/07 12:46:34;;;;;;;;;;;17.90;89.10;;;;;;5093729;28;19934;-55
2023/01/07 12:49:14;;;;;;;;;;;17.80;89.30;;;;;;5093914;28;20299;-55
2023/01/07 12:51:47;;;;;;;;;;;17.80;89.20;;;;;;5098079;28;19912;-55
2023/01/07 12:54:23;;;;;;;;;;;17.80;89.50;;;;;;5094062;28;19981;-54
2023/01/07 12:56:55;;;;;;;;;;;17.80;89.80;;;;;;5094339;28;19909;-55
2023/01/07 12:59:32;;;;;;;;;;;17.80;89.90;;;;;;5093765;28;19916;-55
2023/01/07 13:02:16;;;;;;;;;;;17.80;89.80;;;;;;5094107;28;19908;-54
2023/01/07 13:04:51;;;;;;;;;;;17.90;89.70;;;;;;5094145;28;19912;-53
2023/01/07 13:07:24;;;;;;;;;;;18.00;89.30;;;;;;5093848;28;20278;-56
2023/01/07 13:09:50;;;;;;;;;;;18.20;89.00;;;;;;5093831;28;20396;-56
2023/01/07 13:12:41;;;;;;;;;;;18.30;88.60;;;;;;5075762;28;19909;-56
2023/01/07 13:15:27;;;;;;;;;;;18.30;88.30;;;;;;5094201;28;19922;-56
2023/01/07 13:18:13;;;;;;;;;;;18.40;88.20;;;;;;5093222;28;20020;-54
2023/01/07 13:20:41;;;;;;;;;;;18.30;88.20;;;;;;5093971;28;19967;-57
2023/01/07 13:23:14;;;;;;;;;;;18.30;88.30;;;;;;5093991;28;19908;-55
2023/01/07 13:26:04;;;;;;;;;;;18.20;88.50;;;;;;5093787;28;19909;-55
2023/01/07 13:28:48;;;;;;;;;;;18.20;88.70;;;;;;5100659;28;19920;-56
2023/01/07 13:31:14;;;;;;;;;;;18.10;88.90;;;;;;5074794;28;19912;-54
2023/01/07 13:33:50;;;;;;;;;;;18.00;89.00;;;;;;5091225;28;19912;-59
2023/01/07 13:36:45;;;;;;;;;;;17.90;85.20;;;;;;5113426;28;19920;-54
2023/01/07 13:39:29;;;;;;;;;;;17.70;85.30;;;;;;5066816;28;20277;-56
2023/01/07 13:41:58;;;;;;;;;;;17.60;85.90;;;;;;5094198;28;20002;-55
2023/01/07 13:44:42;;;;;;;;;;;17.60;86.40;;;;;;5085884;28;20446;-54
2023/01/07 13:47:09;;;;;;;;;;;17.50;86.10;;;;;;5099652;28;20007;-57
2023/01/07 13:49:35;;;;;;;;;;;17.40;86.40;;;;;;5091410;28;19908;-58
2023/01/07 13:52:20;;;;;;;;;;;17.40;86.60;;;;;;5090470;28;19918;-59
2023/01/07 13:54:49;;;;;;;;;;;17.50;86.60;;;;;;5089987;28;19937;-59
2023/01/07 13:57:30;;;;;;;;;;;17.60;86.40;;;;;;5103777;28;19973;-59
2023/01/07 13:59:59;;;;;;;;;;;17.90;86.00;;;;;;5112650;28;19920;-59
2023/01/07 14:02:25;;;;;;;;;;;18.10;85.50;;;;;;5099554;28;19916;-59
2023/01/07 14:05:06;;;;;;;;;;;18.20;85.20;;;;;;5079348;28;19962;-59
2023/01/07 14:07:42;;;;;;;;;;;18.40;85.90;;;;;;5084005;28;19919;-57
2023/01/07 14:10:16;;;;;;;;;;;18.50;85.90;;;;;;5088339;28;19919;-58
2023/01/07 14:13:02;;;;;;;;;;;18.50;86.00;;;;;;5113466;28;19911;-58
2023/01/07 14:15:38;;;;;;;;;;;18.50;86.00;;;;;;5052331;28;20384;-58
2023/01/07 14:18:06;;;;;;;;;;;18.40;86.10;;;;;;5086339;28;19915;-57
2023/01/07 14:20:43;;;;;;;;;;;18.40;86.30;;;;;;5112719;28;19963;-55
2023/01/07 14:23:21;;;;;;;;;;;18.30;86.60;;;;;;5110268;28;20006;-57
2023/01/07 14:26:05;;;;;;;;;;;18.30;86.80;;;;;;5097020;28;19908;-57
2023/01/07 14:28:33;;;;;;;;;;;18.20;87.00;;;;;;5110348;28;19942;-56
2023/01/07 14:30:59;;;;;;;;;;;18.10;87.10;;;;;;5109420;28;20327;-58